Time;durP1;ratioP1;P1;durP2;ratioP2;P2;SDS_P1;SDS_P2;PMS_P1;PMS_P2;Temp;Humidity;BMP_temperature;BMP_pressure;BME280_temperature;BME280_humidity;BME280_pressure;Samples;Min_cycle;Max_cycle;Signal;HPM_P1;HPM_P2
2023/01/04 00:01:40;;;;;;;;;;;;;;;9.17;100.00;99829.47;5064341;28;19927;-41
2023/01/04 00:04:06;;;;;;;;;;;;;;;9.15;100.00;99828.63;5065811;28;19969;-41
2023/01/04 00:06:31;;;;;;;;;;;;;;;8.80;100.00;99787.94;5065597;28;19965;-41
2023/01/04 00:08:56;;;;;;;;;;;;;;;9.01;100.00;99804.84;5065136;28;19970;-41
2023/01/04 00:11:22;;;;;;;;;;;;;;;8.69;100.00;99782.97;5067021;28;19919;-41
2023/01/04 00:13:48;;;;;;;;;;;;;;;8.48;100.00;99783.19;5065513;28;19927;-41
2023/01/04 00:16:15;;;;;;;;;;;;;;;8.98;100.00;99800.56;5066831;28;19931;-41
2023/01/04 00:18:40;;;;;;;;;;;;;;;8.77;100.00;99790.56;5067684;28;19966;-41
2023/01/04 00:21:06;;;;;;;;;;;;;;;9.07;100.00;99794.47;5066250;28;20011;-41
2023/01/04 00:23:31;;;;;;;;;;;;;;;8.75;100.00;99798.28;5067420;28;19916;-41
2023/01/04 00:25:57;;;;;;;;;;;;;;;8.97;100.00;99798.03;5065202;28;20419;-41
2023/01/04 00:28:22;;;;;;;;;;;;;;;8.99;100.00;99801.44;5065768;28;20034;-41
2023/01/04 00:30:47;;;;;;;;;;;;;;;9.09;100.00;99790.16;5065085;28;20016;-41
2023/01/04 00:33:12;;;;;;;;;;;;;;;9.18;100.00;99784.06;5066000;28;20027;-41
2023/01/04 00:35:37;;;;;;;;;;;;;;;9.21;100.00;99781.44;5065260;28;20042;-41
2023/01/04 00:38:03;;;;;;;;;;;;;;;9.07;100.00;99765.34;5062928;28;20030;-41
2023/01/04 00:40:28;;;;;;;;;;;;;;;9.22;100.00;99765.16;5064124;28;20047;-41
2023/01/04 00:42:53;;;;;;;;;;;;;;;9.10;100.00;99745.63;5061882;28;20057;-41
2023/01/04 00:45:18;;;;;;;;;;;;;;;8.72;100.00;99734.13;5062705;28;20023;-41
2023/01/04 00:47:44;;;;;;;;;;;;;;;8.64;100.00;99733.34;5065007;28;19920;-41
2023/01/04 00:50:09;;;;;;;;;;;;;;;9.15;100.00;99746.41;5063729;28;20006;-41
2023/01/04 00:52:34;;;;;;;;;;;;;;;8.99;100.00;99730.34;5064896;28;19974;-41
2023/01/04 00:54:59;;;;;;;;;;;;;;;9.14;100.00;99724.13;5065210;28;19964;-41
2023/01/04 00:57:25;;;;;;;;;;;;;;;9.21;100.00;99718.03;5061795;28;19932;-41
2023/01/04 00:59:50;;;;;;;;;;;;;;;9.32;100.00;99723.00;5062642;28;19921;-41
2023/01/04 01:02:15;;;;;;;;;;;;;;;9.36;100.00;99708.41;5067721;28;19927;-41
2023/01/04 01:04:40;;;;;;;;;;;;;;;9.04;100.00;99707.16;5050323;28;19930;-41
2023/01/04 01:07:06;;;;;;;;;;;;;;;9.26;100.00;99711.97;5067558;28;19920;-41
2023/01/04 01:09:31;;;;;;;;;;;;;;;9.01;100.00;99686.66;5057847;28;19920;-41
2023/01/04 01:11:56;;;;;;;;;;;;;;;8.94;100.00;99690.16;5066360;28;19920;-41
2023/01/04 01:14:23;;;;;;;;;;;;;;;9.04;100.00;99694.31;5067234;28;20345;-41
2023/01/04 01:16:48;;;;;;;;;;;;;;;9.39;100.00;99692.91;5065778;28;19920;-41
2023/01/04 01:19:14;;;;;;;;;;;;;;;9.10;100.00;99677.94;5067260;28;20510;-41
2023/01/04 01:21:39;;;;;;;;;;;;;;;9.31;100.00;99692.22;5065936;28;19920;-41
2023/01/04 01:24:04;;;;;;;;;;;;;;;9.17;100.00;99670.13;5068638;28;20324;-42
2023/01/04 01:26:30;;;;;;;;;;;;;;;9.41;100.00;99670.59;5065857;28;19916;-41
2023/01/04 01:28:55;;;;;;;;;;;;;;;9.17;100.00;99652.16;5065884;28;20880;-41
2023/01/04 01:31:25;;;;;;;;;;;;;;;9.14;100.00;99636.75;5067223;28;19920;-41
2023/01/04 01:33:51;;;;;;;;;;;;;;;9.75;100.00;99647.72;5065937;28;19997;-41
2023/01/04 01:36:16;;;;;;;;;;;;;;;9.54;100.00;99640.41;5067863;28;19924;-40
2023/01/04 01:38:42;;;;;;;;;;;;;;;9.55;100.00;99614.66;5068391;28;20408;-40
2023/01/04 01:41:09;;;;;;;;;;;;;;;8.92;100.00;99605.44;5070510;28;20573;-41
2023/01/04 01:43:53;;;;;;;;;;;;;;;9.42;100.00;99631.19;5066108;28;19920;-40
2023/01/04 01:46:20;;;;;;;;;;;;;;;9.42;100.00;99620.91;5067249;28;20790;-40
2023/01/04 01:48:45;;;;;;;;;;;;;;;9.44;100.00;99619.13;5069026;28;19916;-40
2023/01/04 01:51:10;;;;;;;;;;;;;;;9.26;100.00;99616.88;5059150;28;19920;-40
2023/01/04 01:53:36;;;;;;;;;;;;;;;9.26;100.00;99614.31;5068251;28;19920;-40
2023/01/04 01:56:02;;;;;;;;;;;;;;;9.77;100.00;99616.84;5065805;28;19924;-40
2023/01/04 01:58:32;;;;;;;;;;;;;;;9.66;100.00;99605.91;5067645;28;19971;-40
2023/01/04 02:00:57;;;;;;;;;;;;;;;9.81;100.00;99608.19;5064612;28;19920;-40
2023/01/04 02:03:23;;;;;;;;;;;;;;;9.47;100.00;99588.25;5064933;28;19927;-40
2023/01/04 02:05:49;;;;;;;;;;;;;;;9.69;100.00;99604.09;5066369;28;19926;-40
2023/01/04 02:08:14;;;;;;;;;;;;;;;9.56;100.00;99598.34;5063660;28;19916;-41
2023/01/04 02:10:41;;;;;;;;;;;;;;;9.77;100.00;99617.69;5066438;28;19920;-40
2023/01/04 02:13:11;;;;;;;;;;;;;;;9.61;100.00;99613.69;5063594;28;19921;-40
2023/01/04 02:15:55;;;;;;;;;;;;;;;9.55;100.00;99622.34;5066354;28;20011;-40
2023/01/04 02:18:24;;;;;;;;;;;;;;;9.21;100.00;99597.25;5067595;28;19916;-40
2023/01/04 02:20:49;;;;;;;;;;;;;;;9.60;100.00;99627.41;5067093;28;19982;-40
2023/01/04 02:23:24;;;;;;;;;;;;;;;9.66;100.00;99626.47;5064556;28;19920;-39
2023/01/04 02:26:15;;;;;;;;;;;;;;;9.89;100.00;99626.88;5073057;28;19931;-39
2023/01/04 02:28:59;;;;;;;;;;;;;;;9.72;100.00;99640.06;5042394;28;19950;-39
2023/01/04 02:31:36;;;;;;;;;;;;;;;9.53;100.00;99649.81;5067240;28;19923;-40
2023/01/04 02:34:20;;;;;;;;;;;;;;;9.39;100.00;99642.34;5067116;28;19966;-40
2023/01/04 02:36:54;;;;;;;;;;;;;;;9.69;100.00;99664.97;5069627;28;20498;-40
2023/01/04 02:39:22;;;;;;;;;;;;;;;9.30;100.00;99633.94;5067860;28;19965;-40
2023/01/04 02:42:06;;;;;;;;;;;;;;;9.66;100.00;99639.34;5056486;28;19920;-40
2023/01/04 02:44:52;;;;;;;;;;;;;;;9.22;100.00;99644.38;5066694;28;19985;-40
2023/01/04 02:50:31;;;;;;;;;;;;;;;9.32;100.00;99686.19;5065408;28;19970;-40
2023/01/04 02:52:58;;;;;;;;;;;;;;;9.72;100.00;99712.09;5073245;28;19924;-39
2023/01/04 02:55:23;;;;;;;;;;;;;;;9.54;100.00;99687.53;5065571;28;21242;-39
2023/01/04 02:57:52;;;;;;;;;;;;;;;9.43;100.00;99684.28;5066826;28;19920;-40
2023/01/04 03:00:23;;;;;;;;;;;;;;;9.69;100.00;99698.41;5064586;28;19924;-40
2023/01/04 03:06:14;;;;;;;;;;;;;;;9.53;100.00;99705.53;5070494;28;19927;-39
2023/01/04 03:08:42;;;;;;;;;;;;;;;9.47;100.00;99695.38;5053969;28;19973;-40
2023/01/04 03:14:03;;;;;;;;;;;;;;;9.82;100.00;99739.34;5065775;28;19926;-40
2023/01/04 03:16:29;;;;;;;;;;;;;;;9.37;100.00;99694.66;5065190;28;19982;-40
2023/01/04 03:18:55;;;;;;;;;;;;;;;9.53;100.00;99749.25;5065253;28;19930;-40
2023/01/04 03:21:20;;;;;;;;;;;;;;;9.44;100.00;99729.66;5064588;28;19981;-40
2023/01/04 03:37:41;;;;;;;;;;;;;;;9.46;100.00;99697.06;5064647;28;19928;-40
2023/01/04 03:48:36;;;;;;;;;;;;;;;9.38;100.00;99732.34;5062142;28;19944;-40
2023/01/04 03:51:06;;;;;;;;;;;;;;;9.59;100.00;99726.88;5062473;28;20053;-40
2023/01/04 03:53:32;;;;;;;;;;;;;;;9.72;100.00;99737.81;5063670;28;19916;-40
2023/01/04 03:55:57;;;;;;;;;;;;;;;9.63;100.00;99717.38;5063045;28;19924;-40
2023/01/04 03:58:22;;;;;;;;;;;;;;;9.60;100.00;99769.72;5062292;28;19928;-40
2023/01/04 04:00:48;;;;;;;;;;;;;;;9.43;100.00;99725.41;5064654;28;20766;-40
2023/01/04 04:03:13;;;;;;;;;;;;;;;9.57;100.00;99759.47;5063742;28;20034;-40
2023/01/04 04:08:29;;;;;;;;;;;;;;;9.70;100.00;99738.72;5061177;28;20042;-40
2023/01/04 04:10:56;;;;;;;;;;;;;;;9.79;100.00;99738.56;5064667;28;20113;-40
2023/01/04 04:13:21;;;;;;;;;;;;;;;9.73;100.00;99723.22;5063355;28;19916;-40
2023/01/04 04:15:47;;;;;;;;;;;;;;;9.74;100.00;99730.03;5063736;28;20441;-40
2023/01/04 04:18:12;;;;;;;;;;;;;;;9.72;100.00;99753.25;5063901;28;20011;-40
2023/01/04 04:20:37;;;;;;;;;;;;;;;9.52;100.00;99743.28;5063416;28;19973;-40
2023/01/04 04:23:03;;;;;;;;;;;;;;;9.56;100.00;99726.94;5065090;28;19920;-40
2023/01/04 04:25:28;;;;;;;;;;;;;;;9.60;100.00;99740.56;5062755;28;20415;-39
2023/01/04 04:27:53;;;;;;;;;;;;;;;9.76;100.00;99736.00;5065737;28;19970;-40
2023/01/04 04:30:18;;;;;;;;;;;;;;;9.93;100.00;99749.44;5064429;28;19973;-40
2023/01/04 04:32:44;;;;;;;;;;;;;;;9.61;100.00;99742.28;5064674;28;19942;-40
2023/01/04 04:35:09;;;;;;;;;;;;;;;9.85;100.00;99735.84;5065082;28;20009;-40
2023/01/04 04:37:36;;;;;;;;;;;;;;;9.60;100.00;99723.44;5067701;28;19986;-40
2023/01/04 04:40:01;;;;;;;;;;;;;;;9.89;100.00;99718.66;5066228;28;20530;-40
2023/01/04 04:42:26;;;;;;;;;;;;;;;9.75;100.00;99711.19;5067340;28;19973;-39
2023/01/04 04:44:51;;;;;;;;;;;;;;;9.89;100.00;99734.94;5067923;28;20052;-40
2023/01/04 04:47:16;;;;;;;;;;;;;;;9.98;100.00;99736.50;5068897;28;19951;-40
2023/01/04 04:49:42;;;;;;;;;;;;;;;9.88;100.00;99725.53;5068459;28;19971;-40
2023/01/04 04:52:07;;;;;;;;;;;;;;;9.98;100.00;99703.91;5068625;28;19959;-40
2023/01/04 04:54:32;;;;;;;;;;;;;;;9.92;100.00;99691.16;5068783;28;20009;-40
2023/01/04 04:56:57;;;;;;;;;;;;;;;10.03;100.00;99704.69;5068249;28;19951;-40
2023/01/04 04:59:22;;;;;;;;;;;;;;;9.88;100.00;99712.69;5068367;28;19955;-40
2023/01/04 05:01:48;;;;;;;;;;;;;;;9.83;100.00;99704.19;5069055;28;19944;-40
2023/01/04 05:04:15;;;;;;;;;;;;;;;10.00;100.00;99696.16;5067770;28;19963;-40
2023/01/04 05:06:41;;;;;;;;;;;;;;;9.75;100.00;99677.75;5070511;28;20003;-40
2023/01/04 05:09:06;;;;;;;;;;;;;;;9.60;100.00;99660.84;5069179;28;20224;-40
2023/01/04 05:14:15;;;;;;;;;;;;;;;9.88;99.67;99712.69;5067778;28;19932;-40
2023/01/04 05:16:41;;;;;;;;;;;;;;;9.94;100.00;99722.00;5071990;28;19932;-40
2023/01/04 05:19:06;;;;;;;;;;;;;;;9.76;99.78;99707.72;5069935;28;19970;-40
2023/01/04 05:21:31;;;;;;;;;;;;;;;9.91;99.54;99743.47;5069852;28;19920;-40
2023/01/04 05:23:56;;;;;;;;;;;;;;;9.87;98.42;99718.69;5068009;28;19921;-40
2023/01/04 05:26:22;;;;;;;;;;;;;;;10.21;98.08;99718.06;5070205;28;20113;-40
2023/01/04 05:28:47;;;;;;;;;;;;;;;10.07;99.50;99715.75;5070553;28;20033;-40
2023/01/04 05:31:13;;;;;;;;;;;;;;;10.03;98.84;99712.41;5070431;28;20023;-40
2023/01/04 05:33:38;;;;;;;;;;;;;;;10.37;98.92;99716.91;5071358;28;20616;-40
2023/01/04 05:36:04;;;;;;;;;;;;;;;10.04;100.00;99693.50;5068884;28;19975;-40
2023/01/04 05:38:29;;;;;;;;;;;;;;;10.07;100.00;99714.91;5069602;28;19924;-40
2023/01/04 05:40:54;;;;;;;;;;;;;;;9.90;100.00;99668.88;5068389;28;20461;-41
2023/01/04 05:43:20;;;;;;;;;;;;;;;10.00;99.72;99698.72;5068163;28;19920;-41
2023/01/04 05:45:49;;;;;;;;;;;;;;;10.21;97.53;99718.06;5070109;28;19924;-41
2023/01/04 05:48:15;;;;;;;;;;;;;;;10.04;98.15;99741.56;5068643;28;20462;-40
2023/01/04 05:50:40;;;;;;;;;;;;;;;9.92;99.11;99704.03;5059641;28;19955;-40
2023/01/04 05:53:05;;;;;;;;;;;;;;;10.32;98.00;99697.31;5068567;28;19924;-40
2023/01/04 05:55:31;;;;;;;;;;;;;;;10.03;99.14;99696.97;5068584;28;20047;-40
2023/01/04 05:57:56;;;;;;;;;;;;;;;9.96;100.00;99705.66;5070242;28;20362;-40
2023/01/04 06:00:21;;;;;;;;;;;;;;;10.15;97.58;99713.91;5068417;28;19912;-40
2023/01/04 06:02:47;;;;;;;;;;;;;;;10.10;98.81;99707.97;5068686;28;19944;-40
2023/01/04 06:05:12;;;;;;;;;;;;;;;10.20;99.27;99721.53;5059223;28;19920;-40
2023/01/04 06:07:38;;;;;;;;;;;;;;;10.14;99.44;99691.59;5067981;28;20351;-40
2023/01/04 06:10:04;;;;;;;;;;;;;;;10.10;99.31;99707.13;5066105;28;19916;-40
2023/01/04 06:12:29;;;;;;;;;;;;;;;10.16;99.63;99717.31;5067503;28;19968;-40
2023/01/04 06:14:54;;;;;;;;;;;;;;;10.37;98.46;99704.03;5067469;28;20011;-40
2023/01/04 06:17:19;;;;;;;;;;;;;;;9.98;99.66;99698.75;5066426;28;19963;-40
2023/01/04 06:19:45;;;;;;;;;;;;;;;10.35;96.87;99707.53;5067277;28;19972;-40
2023/01/04 06:22:10;;;;;;;;;;;;;;;10.29;99.24;99698.22;5067775;28;19978;-40
2023/01/04 06:24:35;;;;;;;;;;;;;;;10.58;97.32;99699.34;5068193;28;19927;-40
2023/01/04 06:27:01;;;;;;;;;;;;;;;10.68;100.00;99690.56;5069715;28;19920;-40
2023/01/04 06:29:26;;;;;;;;;;;;;;;10.63;99.72;99692.38;5070054;28;20332;-40
2023/01/04 06:31:51;;;;;;;;;;;;;;;10.69;100.00;99676.78;5069579;28;19927;-40
2023/01/04 06:34:16;;;;;;;;;;;;;;;10.36;100.00;99670.63;5071582;28;19923;-40
2023/01/04 06:36:42;;;;;;;;;;;;;;;10.19;100.00;99665.75;5067471;28;19916;-40
2023/01/04 06:39:07;;;;;;;;;;;;;;;10.87;98.26;99684.09;5068879;28;19916;-40
2023/01/04 06:41:33;;;;;;;;;;;;;;;10.55;97.98;99677.06;5067272;28;19927;-40
2023/01/04 06:43:58;;;;;;;;;;;;;;;10.55;100.00;99686.53;5064641;28;19931;-40
2023/01/04 06:46:23;;;;;;;;;;;;;;;10.52;99.57;99676.31;5067382;28;20768;-40
2023/01/04 06:48:48;;;;;;;;;;;;;;;10.65;99.16;99663.13;5067898;28;19920;-40
2023/01/04 06:51:13;;;;;;;;;;;;;;;10.71;98.81;99693.06;5070250;28;20366;-40
2023/01/04 06:53:39;;;;;;;;;;;;;;;10.51;100.00;99669.44;5067206;28;19974;-40
2023/01/04 06:56:05;;;;;;;;;;;;;;;10.78;97.08;99671.41;5067710;28;19924;-40
2023/01/04 06:58:30;;;;;;;;;;;;;;;10.55;99.73;99671.09;5065621;28;19916;-40
2023/01/04 07:00:55;;;;;;;;;;;;;;;11.08;98.46;99674.19;5066864;28;19931;-40
2023/01/04 07:03:21;;;;;;;;;;;;;;;10.95;100.00;99662.47;5067752;28;19920;-40
2023/01/04 07:05:46;;;;;;;;;;;;;;;10.96;99.74;99648.72;5068560;28;19921;-40
2023/01/04 07:08:12;;;;;;;;;;;;;;;10.58;99.34;99647.81;5068000;28;19916;-40
2023/01/04 07:10:37;;;;;;;;;;;;;;;10.53;97.10;99647.09;5067088;28;20023;-40
2023/01/04 07:13:02;;;;;;;;;;;;;;;10.30;97.57;99637.28;5066605;28;19922;-40
2023/01/04 07:15:27;;;;;;;;;;;;;;;10.71;95.08;99654.41;5066345;28;19968;-40
2023/01/04 07:17:53;;;;;;;;;;;;;;;10.61;95.48;99648.63;5065421;28;20690;-40
2023/01/04 07:20:18;;;;;;;;;;;;;;;11.15;95.16;99672.31;5064648;28;19916;-40
2023/01/04 07:22:43;;;;;;;;;;;;;;;11.00;97.53;99660.66;5065755;28;20061;-40
2023/01/04 07:25:08;;;;;;;;;;;;;;;10.76;98.20;99662.88;5065614;28;19964;-40
2023/01/04 07:27:34;;;;;;;;;;;;;;;10.67;95.68;99657.94;5066274;28;19951;-40
2023/01/04 07:29:59;;;;;;;;;;;;;;;11.10;96.16;99675.00;5065245;28;20030;-40
2023/01/04 07:32:24;;;;;;;;;;;;;;;10.95;98.26;99652.16;5066876;28;19963;-40
2023/01/04 07:34:49;;;;;;;;;;;;;;;10.84;97.21;99658.41;5066210;28;19940;-40
2023/01/04 07:37:15;;;;;;;;;;;;;;;11.17;95.48;99668.81;5065727;28;20846;-40
2023/01/04 07:39:40;;;;;;;;;;;;;;;10.82;98.00;99655.03;5065371;28;19998;-40
2023/01/04 07:42:05;;;;;;;;;;;;;;;11.00;95.43;99661.50;5065575;28;19916;-40
2023/01/04 07:44:31;;;;;;;;;;;;;;;10.62;97.63;99649.47;5066257;28;20023;-41
2023/01/04 07:46:56;;;;;;;;;;;;;;;10.89;94.59;99673.78;5068618;28;19920;-40
2023/01/04 07:49:21;;;;;;;;;;;;;;;11.00;92.75;99673.53;5070147;28;19951;-40
2023/01/04 07:51:46;;;;;;;;;;;;;;;10.96;95.83;99670.16;5070473;28;19927;-40
2023/01/04 07:54:12;;;;;;;;;;;;;;;10.86;95.16;99661.81;5070463;28;19939;-40
2023/01/04 07:56:37;;;;;;;;;;;;;;;10.99;93.20;99671.81;5069885;28;19985;-40
2023/01/04 07:59:06;;;;;;;;;;;;;;;10.99;94.97;99684.72;5069952;28;19927;-40
2023/01/04 08:01:34;;;;;;;;;;;;;;;10.91;94.88;99676.31;5070055;28;19917;-41
2023/01/04 08:03:59;;;;;;;;;;;;;;;11.07;95.25;99675.09;5071254;28;19923;-40
2023/01/04 08:06:25;;;;;;;;;;;;;;;10.96;96.26;99669.31;5070153;28;19920;-40
2023/01/04 08:08:50;;;;;;;;;;;;;;;11.14;92.49;99679.22;5067397;28;19940;-40
2023/01/04 08:11:16;;;;;;;;;;;;;;;10.98;93.18;99665.00;5068972;28;19920;-40
2023/01/04 08:13:41;;;;;;;;;;;;;;;11.07;92.60;99675.09;5068220;28;19917;-40
2023/01/04 08:16:07;;;;;;;;;;;;;;;10.98;94.26;99683.03;5069691;28;20404;-40
2023/01/04 08:18:32;;;;;;;;;;;;;;;10.81;91.36;99697.13;5065482;28;20277;-40
2023/01/04 08:21:05;;;;;;;;;;;;;;;11.04;88.35;99714.66;5066988;28;19917;-40
2023/01/04 08:23:30;;;;;;;;;;;;;;;11.09;88.91;99717.97;5065541;28;20612;-40
2023/01/04 08:26:00;;;;;;;;;;;;;;;11.22;90.74;99707.38;5065434;28;19916;-40
2023/01/04 08:28:26;;;;;;;;;;;;;;;11.06;90.46;99691.41;5066627;28;20028;-40
2023/01/04 08:30:51;;;;;;;;;;;;;;;11.23;90.51;99689.31;5066683;28;20076;-40
2023/01/04 08:33:16;;;;;;;;;;;;;;;11.23;91.29;99681.56;5073681;28;19948;-40
2023/01/04 08:35:41;;;;;;;;;;;;;;;11.03;91.73;99671.72;5069923;28;19920;-40
2023/01/04 08:38:07;;;;;;;;;;;;;;;11.17;88.88;99675.72;5069013;28;19920;-40
2023/01/04 08:40:32;;;;;;;;;;;;;;;11.15;90.29;99683.47;5068262;28;19947;-41
2023/01/04 08:42:57;;;;;;;;;;;;;;;10.96;89.18;99680.47;5067909;28;20013;-40
2023/01/04 08:45:22;;;;;;;;;;;;;;;10.63;87.43;99651.16;5070405;28;19981;-40
2023/01/04 08:47:48;;;;;;;;;;;;;;;11.01;83.98;99667.47;5068848;28;20376;-40
2023/01/04 08:50:15;;;;;;;;;;;;;;;10.93;85.31;99671.97;5066899;28;20560;-40
2023/01/04 08:52:41;;;;;;;;;;;;;;;11.14;84.17;99680.94;5069816;28;19916;-40
2023/01/04 08:55:06;;;;;;;;;;;;;;;11.14;84.86;99689.53;5068725;28;19920;-40
2023/01/04 08:57:32;;;;;;;;;;;;;;;11.12;83.58;99704.16;5067492;28;19936;-40
2023/01/04 08:59:58;;;;;;;;;;;;;;;11.05;83.64;99690.56;5067876;28;20400;-40
2023/01/04 09:02:24;;;;;;;;;;;;;;;11.05;83.40;99700.03;5068708;28;19923;-40
2023/01/04 09:04:49;;;;;;;;;;;;;;;11.32;81.44;99705.44;5070398;28;20009;-40
2023/01/04 09:07:15;;;;;;;;;;;;;;;11.11;83.43;99705.06;5067840;28;20378;-40
2023/01/04 09:09:40;;;;;;;;;;;;;;;10.73;86.24;99693.03;5069938;28;20265;-40
2023/01/04 09:12:05;;;;;;;;;;;;;;;10.95;81.67;99699.41;5064632;28;19924;-40
2023/01/04 09:14:30;;;;;;;;;;;;;;;11.13;81.94;99718.78;5067152;28;19916;-40
2023/01/04 09:16:56;;;;;;;;;;;;;;;11.16;82.54;99723.84;5068823;28;19916;-40
2023/01/04 09:19:21;;;;;;;;;;;;;;;11.40;82.44;99722.41;5064915;28;20369;-40
2023/01/04 09:21:47;;;;;;;;;;;;;;;11.13;84.29;99702.44;5065626;28;19962;-40
2023/01/04 09:24:12;;;;;;;;;;;;;;;11.32;84.88;99705.44;5072559;28;19916;-40
2023/01/04 09:26:38;;;;;;;;;;;;;;;11.27;84.92;99706.41;5072552;28;20369;-40
2023/01/04 09:29:04;;;;;;;;;;;;;;;11.41;85.30;99700.06;5072352;28;19919;-40
2023/01/04 09:31:29;;;;;;;;;;;;;;;11.27;86.22;99680.63;5071751;28;20106;-40
2023/01/04 09:33:55;;;;;;;;;;;;;;;11.47;85.49;99679.28;5064058;28;19920;-40
2023/01/04 09:36:20;;;;;;;;;;;;;;;11.63;85.34;99683.19;5071103;28;19920;-40
2023/01/04 09:38:45;;;;;;;;;;;;;;;11.41;87.74;99676.88;5071987;28;20396;-40
2023/01/04 09:41:24;;;;;;;;;;;;;;;11.46;85.38;99669.84;5073772;28;19920;-40
2023/01/04 09:43:49;;;;;;;;;;;;;;;11.83;84.84;99674.91;5071637;28;19951;-40
2023/01/04 09:46:24;;;;;;;;;;;;;;;11.75;85.40;99676.84;5064255;28;19955;-39
2023/01/04 09:48:49;;;;;;;;;;;;;;;11.77;86.51;99649.28;5072055;28;19927;-39
2023/01/04 09:51:15;;;;;;;;;;;;;;;11.91;87.07;99660.09;5071539;28;19913;-39
2023/01/04 09:53:52;;;;;;;;;;;;;;;11.77;86.49;99658.72;5072020;28;19927;-39
2023/01/04 09:56:36;;;;;;;;;;;;;;;11.86;84.39;99658.50;5070690;28;20106;-39
2023/01/04 09:59:02;;;;;;;;;;;;;;;11.69;85.23;99656.38;5069646;28;20056;-39
2023/01/04 10:01:47;;;;;;;;;;;;;;;11.95;83.94;99666.06;5070829;28;19971;-39
2023/01/04 10:04:19;;;;;;;;;;;;;;;11.48;86.03;99643.13;5072577;28;19916;-39
2023/01/04 10:06:44;;;;;;;;;;;;;;;11.46;84.25;99665.53;5071217;28;20304;-39
2023/01/04 10:09:10;;;;;;;;;;;;;;;11.56;81.39;99676.47;5070485;28;20519;-40
2023/01/04 10:11:39;;;;;;;;;;;;;;;11.81;81.04;99693.91;5070190;28;19930;-39
2023/01/04 10:14:13;;;;;;;;;;;;;;;11.95;81.81;99681.53;5074059;28;19944;-39
2023/01/04 10:17:00;;;;;;;;;;;;;;;11.81;82.06;99670.66;5071144;28;20368;-39
2023/01/04 10:19:33;;;;;;;;;;;;;;;11.84;81.80;99665.44;5069125;28;19927;-39
2023/01/04 10:21:59;;;;;;;;;;;;;;;11.77;80.29;99675.09;5071671;28;19967;-39
2023/01/04 10:24:34;;;;;;;;;;;;;;;11.87;79.84;99686.00;5070442;28;20013;-39
2023/01/04 10:27:04;;;;;;;;;;;;;;;11.68;81.63;99678.75;5071375;28;20586;-39
2023/01/04 10:29:52;;;;;;;;;;;;;;;11.82;81.19;99674.97;5071668;28;20435;-39
2023/01/04 10:32:19;;;;;;;;;;;;;;;11.86;79.86;99680.00;5072421;28;20948;-39
2023/01/04 10:34:45;;;;;;;;;;;;;;;11.72;79.12;99671.75;5069890;28;20003;-39
2023/01/04 10:37:16;;;;;;;;;;;;;;;11.82;78.16;99693.03;5071806;28;19923;-39
2023/01/04 10:39:41;;;;;;;;;;;;;;;11.95;76.66;99689.28;5072084;28;19920;-40
2023/01/04 10:42:22;;;;;;;;;;;;;;;11.74;76.44;99690.63;5068344;28;20389;-40
2023/01/04 10:44:51;;;;;;;;;;;;;;;11.80;74.43;99705.97;5070603;28;19921;-40
2023/01/04 10:47:18;;;;;;;;;;;;;;;11.74;76.33;99719.00;5071697;28;20752;-40
2023/01/04 10:49:48;;;;;;;;;;;;;;;11.30;74.27;99701.16;5069984;28;19920;-40
2023/01/04 10:52:16;;;;;;;;;;;;;;;11.65;70.80;99727.81;5071058;28;19916;-40
2023/01/04 10:54:43;;;;;;;;;;;;;;;11.50;71.03;99728.22;5071287;28;19918;-41
2023/01/04 10:57:22;;;;;;;;;;;;;;;11.70;70.46;99733.75;5071480;28;20295;-40
2023/01/04 10:59:59;;;;;;;;;;;;;;;11.88;70.95;99750.53;5068855;28;19983;-40
2023/01/04 11:02:26;;;;;;;;;;;;;;;12.00;72.42;99757.13;5071662;28;19985;-40
2023/01/04 11:04:55;;;;;;;;;;;;;;;11.93;73.90;99742.66;5071679;28;19915;-40
2023/01/04 11:07:37;;;;;;;;;;;;;;;11.97;72.58;99744.25;5068597;28;19939;-39
2023/01/04 11:10:07;;;;;;;;;;;;;;;11.73;74.81;99714.75;5077590;28;19999;-40
2023/01/04 11:12:32;;;;;;;;;;;;;;;12.08;73.71;99726.75;5075717;28;19939;-40
2023/01/04 11:14:57;;;;;;;;;;;;;;;12.18;73.92;99706.72;5071171;28;19966;-40
2023/01/04 11:17:22;;;;;;;;;;;;;;;12.18;74.43;99685.19;5071172;28;19948;-41
2023/01/04 11:19:48;;;;;;;;;;;;;;;12.15;74.88;99696.47;5068329;28;20404;-40
2023/01/04 11:22:15;;;;;;;;;;;;;;;12.00;75.45;99679.66;5069559;28;20435;-40
2023/01/04 11:24:40;;;;;;;;;;;;;;;12.01;75.30;99678.78;5069323;28;19916;-40
2023/01/04 11:27:10;;;;;;;;;;;;;;;12.37;72.80;99691.56;5071410;28;19919;-40
2023/01/04 11:29:44;;;;;;;;;;;;;;;12.66;74.13;99684.72;5069814;28;19916;-40
2023/01/04 11:32:45;;;;;;;;;;;;;;;12.21;73.72;99674.81;5070282;28;20465;-40
2023/01/04 11:35:10;;;;;;;;;;;;;;;12.00;74.83;99668.50;5016824;28;19926;-40
2023/01/04 11:37:36;;;;;;;;;;;;;;;11.96;72.67;99670.31;5059019;28;20272;-40
2023/01/04 11:40:17;;;;;;;;;;;;;;;12.09;71.66;99682.00;5070230;28;20293;-40
2023/01/04 11:42:52;;;;;;;;;;;;;;;12.27;70.02;99690.09;5068692;28;19931;-40
2023/01/04 11:45:17;;;;;;;;;;;;;;;11.98;72.33;99680.59;5069227;28;19920;-40
2023/01/04 11:47:46;;;;;;;;;;;;;;;12.02;71.50;99674.44;5070493;28;20445;-41
2023/01/04 11:50:19;;;;;;;;;;;;;;;11.86;71.97;99677.44;5069495;28;19916;-40
2023/01/04 11:52:46;;;;;;;;;;;;;;;12.18;70.28;99687.78;5070147;28;19917;-40
2023/01/04 11:55:25;;;;;;;;;;;;;;;12.07;70.17;99688.09;5070893;28;19928;-40
2023/01/04 11:58:03;;;;;;;;;;;;;;;11.99;71.66;99677.13;5071196;28;19920;-40
2023/01/04 12:00:29;;;;;;;;;;;;;;;11.74;71.09;99677.72;5068776;28;19920;-40
2023/01/04 12:02:56;;;;;;;;;;;;;;;12.12;68.72;99706.88;5070627;28;20553;-40
2023/01/04 12:05:22;;;;;;;;;;;;;;;12.23;68.81;99698.84;5069646;28;20335;-40
2023/01/04 12:07:47;;;;;;;;;;;;;;;12.31;68.88;99702.91;5067863;28;19974;-40
2023/01/04 12:10:25;;;;;;;;;;;;;;;12.08;69.92;99700.94;5069766;28;19916;-40
2023/01/04 12:12:50;;;;;;;;;;;;;;;12.15;70.33;99711.97;5068826;28;20436;-40
2023/01/04 12:15:16;;;;;;;;;;;;;;;12.41;70.23;99718.16;5070163;28;19931;-40
2023/01/04 12:17:45;;;;;;;;;;;;;;;12.63;69.54;99703.72;5069949;28;20387;-40
2023/01/04 12:20:12;;;;;;;;;;;;;;;12.83;70.52;99700.56;5068396;28;19927;-40
2023/01/04 12:22:38;;;;;;;;;;;;;;;12.64;72.98;99678.75;5068185;28;19960;-40
2023/01/04 12:25:05;;;;;;;;;;;;;;;12.22;74.55;99655.81;5068701;28;20035;-40
2023/01/04 12:27:30;;;;;;;;;;;;;;;12.19;72.28;99663.66;5067451;28;19919;-40
2023/01/04 12:29:57;;;;;;;;;;;;;;;12.62;69.44;99680.53;5067598;28;19920;-40
2023/01/04 12:32:25;;;;;;;;;;;;;;;12.80;70.80;99685.16;5066410;28;19999;-40
2023/01/04 12:34:50;;;;;;;;;;;;;;;12.78;69.58;99666.25;5069901;28;19927;-40
2023/01/04 12:37:34;;;;;;;;;;;;;;;12.18;70.46;99667.13;5068881;28;19917;-40
2023/01/04 12:39:59;;;;;;;;;;;;;;;12.38;69.25;99695.81;5069568;28;19926;-40
2023/01/04 12:42:26;;;;;;;;;;;;;;;12.69;68.97;99703.53;5066755;28;20541;-40
2023/01/04 12:44:51;;;;;;;;;;;;;;;12.43;70.42;99681.06;5068993;28;19927;-40
2023/01/04 12:50:07;;;;;;;;;;;;;;;12.34;68.60;99686.50;5068173;28;19965;-40
2023/01/04 12:52:32;;;;;;;;;;;;;;;12.48;67.97;99707.59;5066682;28;19923;-40
2023/01/04 12:54:59;;;;;;;;;;;;;;;12.69;65.62;99713.03;5067481;28;19916;-40
2023/01/04 12:57:33;;;;;;;;;;;;;;;12.76;67.18;99724.88;5066835;28;20026;-41
2023/01/04 13:00:06;;;;;;;;;;;;;;;12.60;67.13;99708.16;5069577;28;19920;-41
2023/01/04 13:02:31;;;;;;;;;;;;;;;12.98;66.26;99715.59;5068672;28;20164;-41
2023/01/04 13:04:57;;;;;;;;;;;;;;;12.57;68.39;99698.75;5069678;28;20563;-40
2023/01/04 13:07:28;;;;;;;;;;;;;;;12.73;65.90;99714.66;5067165;28;19958;-41
2023/01/04 13:09:56;;;;;;;;;;;;;;;12.59;68.40;99701.25;5070228;28;20499;-40
2023/01/04 13:12:25;;;;;;;;;;;;;;;12.65;66.05;99716.59;5070840;28;20592;-40
2023/01/04 13:14:50;;;;;;;;;;;;;;;12.97;66.67;99723.41;5072254;28;19963;-41
2023/01/04 13:17:17;;;;;;;;;;;;;;;12.88;66.05;99727.09;5068947;28;20044;-41
2023/01/04 13:19:43;;;;;;;;;;;;;;;12.89;66.56;99726.22;5061233;28;19916;-40
2023/01/04 13:22:18;;;;;;;;;;;;;;;12.79;69.41;99711.88;5062525;28;19922;-40
2023/01/04 13:24:44;;;;;;;;;;;;;;;12.39;69.19;99691.53;5070667;28;19916;-40
2023/01/04 13:27:19;;;;;;;;;;;;;;;12.81;65.61;99733.34;5067434;28;19923;-40